createdAt,value
2018-07-07T00:00:15.443Z,64.12
2018-07-07T00:01:15.436Z,64.42
2018-07-07T00:02:15.421Z,64.42
2018-07-07T00:03:15.410Z,64.42
2018-07-07T00:04:15.441Z,64.31
2018-07-07T00:05:15.391Z,64.48
2018-07-07T00:06:15.377Z,64.31
2018-07-07T00:07:15.370Z,64.51
2018-07-07T00:08:15.356Z,64.62
2018-07-07T00:09:15.361Z,64.22
2018-07-07T00:10:15.341Z,64.62
2018-07-07T00:11:15.324Z,64.62
2018-07-07T00:12:15.314Z,64.69
2018-07-07T00:13:15.303Z,64.92
2018-07-07T00:14:15.313Z,64.81
2018-07-07T00:15:15.284Z,64.81
2018-07-07T00:16:15.272Z,64.42
2018-07-07T00:17:15.260Z,64.92
2018-07-07T00:18:15.480Z,65.01
2018-07-07T00:19:15.241Z,64.81
2018-07-07T00:20:15.649Z,64.62
2018-07-07T00:21:15.218Z,64.72
2018-07-07T00:22:15.208Z,64.72
2018-07-07T00:23:15.194Z,64.72
2018-07-07T00:24:15.185Z,64.72
2018-07-07T00:25:15.198Z,64.62
2018-07-07T00:26:15.161Z,64.72
2018-07-07T00:27:15.201Z,64.72
2018-07-07T00:28:15.140Z,64.51
2018-07-07T00:29:15.131Z,64.92
2018-07-07T00:30:15.119Z,64.81
2018-07-07T00:31:15.121Z,64.72
2018-07-07T00:32:15.101Z,64.92
2018-07-07T00:33:15.094Z,65.12
2018-07-07T00:34:15.076Z,64.62
2018-07-07T00:35:15.067Z,64.81
2018-07-07T00:36:15.067Z,65.12
2018-07-07T00:37:15.043Z,65.52
2018-07-07T00:38:15.055Z,66.32
2018-07-07T00:39:15.023Z,66.32
2018-07-07T00:40:15.011Z,66.22
2018-07-07T00:41:15.014Z,66.52
2018-07-07T00:42:14.990Z,66.72
2018-07-07T00:43:14.979Z,67.32
2018-07-07T00:44:14.967Z,67.32
2018-07-07T00:45:14.960Z,66.92
2018-07-07T00:46:14.956Z,66.82
2018-07-07T00:47:14.935Z,67.12
2018-07-07T00:48:14.925Z,67.02
2018-07-07T00:49:14.915Z,67.25
2018-07-07T00:50:14.902Z,66.75
2018-07-07T00:51:14.907Z,66.52
2018-07-07T00:52:14.880Z,66.52
2018-07-07T00:53:14.871Z,66.25
2018-07-07T00:54:14.857Z,66.05
2018-07-07T00:55:14.848Z,66.25
2018-07-07T00:56:14.848Z,65.85
2018-07-07T00:57:14.824Z,65.85
2018-07-07T00:58:14.818Z,66.05
2018-07-07T00:59:14.802Z,65.85
2018-07-07T01:00:14.793Z,65.55
2018-07-07T01:01:14.793Z,65.65
2018-07-07T01:02:14.773Z,65.75
2018-07-07T01:03:14.760Z,66.15
2018-07-07T01:04:14.749Z,66.05
2018-07-07T01:05:14.741Z,65.85
2018-07-07T01:06:14.762Z,66.05
2018-07-07T01:07:14.719Z,66.25
2018-07-07T01:08:14.709Z,65.95
2018-07-07T01:09:14.697Z,66.25
2018-07-07T01:10:14.683Z,66.25
2018-07-07T01:11:14.672Z,66.05
2018-07-07T01:12:14.685Z,66.05
2018-07-07T01:13:14.657Z,65.95
2018-07-07T01:14:14.641Z,66.05
2018-07-07T01:17:32.084Z,66.25
2018-07-07T01:18:32.060Z,66.28
2018-07-07T01:19:32.066Z,66.55
2018-07-07T01:20:32.036Z,66.38
2018-07-07T01:21:32.026Z,66.45
2018-07-07T01:22:32.016Z,66.45
2018-07-07T01:23:32.004Z,66.68
2018-07-07T01:24:32.010Z,66.58
2018-07-07T01:25:31.982Z,66.88
2018-07-07T01:26:31.971Z,66.78
2018-07-07T01:27:31.961Z,66.88
2018-07-07T01:28:31.952Z,67.08
2018-07-07T01:29:31.953Z,67.38
2018-07-07T01:30:31.926Z,67.05
2018-07-07T01:31:31.916Z,67.38
2018-07-07T01:32:31.907Z,67.49
2018-07-07T01:33:31.897Z,67.18
2018-07-07T01:34:31.910Z,67.29
2018-07-07T01:35:31.882Z,67.79
2018-07-07T01:36:31.864Z,67.79
2018-07-07T01:37:31.850Z,66.99
2018-07-07T01:38:31.836Z,67.38
2018-07-07T01:39:31.826Z,67.38
2018-07-07T01:40:31.832Z,67.49
2018-07-07T01:41:31.807Z,67.29
2018-07-07T01:42:31.797Z,67.32
2018-07-07T01:43:31.784Z,67.82
2018-07-07T01:44:31.772Z,67.52
2018-07-07T01:45:31.778Z,68.12
2018-07-07T01:46:31.749Z,68.72
2018-07-07T01:47:31.738Z,68.52
2018-07-07T01:48:31.728Z,68.85
2018-07-07T01:49:31.717Z,68.45
2018-07-07T01:50:31.725Z,68.76
2018-07-07T01:51:31.694Z,68.25
2018-07-07T01:52:31.681Z,68.05
2018-07-07T01:53:31.674Z,68.76
2018-07-07T01:54:31.663Z,67.95
2018-07-07T01:55:31.651Z,68.79
2018-07-07T01:56:31.680Z,68.25
2018-07-07T01:57:31.629Z,68.08
2018-07-07T01:58:31.617Z,68.55
2018-07-07T01:59:31.605Z,68.35
2018-07-07T02:00:31.720Z,68.76
2018-07-07T02:01:31.588Z,68.35
2018-07-07T02:02:31.595Z,68.29
2018-07-07T02:03:31.562Z,68.18
2018-07-07T02:04:31.552Z,68.18
2018-07-07T02:05:31.540Z,68.18
2018-07-07T02:06:31.527Z,68.68
2018-07-07T02:07:31.531Z,68.59
2018-07-07T02:08:31.508Z,68.29
2018-07-07T02:09:31.496Z,69.19
2018-07-07T02:10:31.595Z,69.29
2018-07-07T02:11:31.472Z,68.88
2018-07-07T02:12:31.476Z,68.82
2018-07-07T02:13:31.455Z,68.41
2018-07-07T02:14:31.441Z,69.12
2018-07-07T02:15:31.429Z,69.22
2018-07-07T02:16:31.419Z,69.12
2018-07-07T02:17:31.444Z,68.62
2018-07-07T02:18:31.399Z,68.52
2018-07-07T02:19:31.387Z,69.12
2018-07-07T02:20:31.386Z,69.32
2018-07-07T02:21:31.365Z,69.32
2018-07-07T02:22:31.353Z,69.12
2018-07-07T02:23:31.359Z,69.42
2018-07-07T02:24:31.332Z,69.22
2018-07-07T02:25:31.320Z,69.25
2018-07-07T02:26:31.309Z,69.15
2018-07-07T02:27:31.297Z,69.25
2018-07-07T02:28:31.287Z,69.35
2018-07-07T02:29:31.294Z,68.85
2018-07-07T02:30:31.264Z,68.45
2018-07-07T02:31:31.264Z,68.35
2018-07-07T02:32:31.245Z,68.45
2018-07-07T02:33:31.233Z,68.55
2018-07-07T02:34:31.239Z,68.45
2018-07-07T02:35:31.211Z,68.75
2018-07-07T02:36:31.203Z,68.55
2018-07-07T02:37:31.187Z,68.65
2018-07-07T02:38:31.176Z,68.45
2018-07-07T02:39:31.185Z,68.55
2018-07-07T02:40:31.174Z,68.98
2018-07-07T02:41:31.145Z,68.55
2018-07-07T02:42:31.134Z,68.95
2018-07-07T02:43:31.122Z,68.95
2018-07-07T02:44:31.128Z,68.55
2018-07-07T02:45:31.103Z,68.88
2018-07-07T02:46:31.089Z,68.95
2018-07-07T02:47:31.095Z,68.68
2018-07-07T02:48:31.069Z,68.68
2018-07-07T02:49:31.076Z,68.55
2018-07-07T02:50:31.046Z,68.48
2018-07-07T02:51:31.040Z,68.98
2018-07-07T02:52:31.031Z,68.78
2018-07-07T02:53:31.015Z,68.78
2018-07-07T02:54:31.002Z,68.18
2018-07-07T02:55:31.013Z,68.38
2018-07-07T02:56:30.983Z,68.59
2018-07-07T02:57:30.980Z,68.38
2018-07-07T02:58:30.956Z,68.38
2018-07-07T02:59:30.949Z,68.68
2018-07-07T03:00:30.936Z,68.28
2018-07-07T03:01:30.939Z,68.38
2018-07-07T03:02:30.915Z,68.68
2018-07-07T03:03:30.904Z,68.48
2018-07-07T03:04:30.892Z,68.38
2018-07-07T03:05:30.887Z,68.28
2018-07-07T03:06:30.886Z,68.38
2018-07-07T03:07:30.861Z,68.59
2018-07-07T03:08:30.849Z,68.59
2018-07-07T03:09:30.841Z,68.08
2018-07-07T03:10:30.830Z,68.88
2018-07-07T03:11:30.830Z,69.29
2018-07-07T03:12:30.805Z,69.29
2018-07-07T03:13:30.793Z,68.78
2018-07-07T03:14:30.788Z,69.52
2018-07-07T03:15:30.772Z,69.18
2018-07-07T03:16:30.785Z,69.59
2018-07-07T03:17:30.751Z,69.22
2018-07-07T03:18:30.740Z,69.72
2018-07-07T03:19:30.728Z,69.62
2018-07-07T03:20:30.719Z,69.92
2018-07-07T03:21:30.707Z,69.76
2018-07-07T03:22:30.733Z,69.62
2018-07-07T03:23:30.686Z,69.76
2018-07-07T03:24:30.676Z,70.12
2018-07-07T03:25:30.664Z,70.06
2018-07-07T03:26:30.655Z,70.16
2018-07-07T03:27:30.647Z,70.16
2018-07-07T03:28:30.647Z,70.06
2018-07-07T03:29:30.617Z,70.03
2018-07-07T03:30:30.609Z,69.72
2018-07-07T03:31:30.601Z,69.52
2018-07-07T03:32:30.590Z,69.42
2018-07-07T03:33:30.590Z,69.96
2018-07-07T03:34:30.565Z,69.76
2018-07-07T03:35:30.554Z,69.56
2018-07-07T03:36:30.541Z,69.56
2018-07-07T03:37:30.528Z,69.56
2018-07-07T03:38:30.536Z,69.35
2018-07-07T03:39:30.511Z,69.76
2018-07-07T03:40:30.497Z,69.76
2018-07-07T03:41:30.489Z,69.65
2018-07-07T03:42:30.476Z,70.03
2018-07-07T03:43:30.500Z,70.03
2018-07-07T03:44:30.456Z,69.92
2018-07-07T03:45:30.441Z,69.92
2018-07-07T03:46:30.429Z,70.12
2018-07-07T03:47:30.419Z,69.52
2018-07-07T03:48:30.408Z,69.42
2018-07-07T03:49:30.414Z,69.32
2018-07-07T03:50:30.387Z,69.82
2018-07-07T03:51:30.374Z,69.82
2018-07-07T03:52:30.366Z,69.82
2018-07-07T03:53:30.352Z,69.72
2018-07-07T03:54:30.341Z,69.82
2018-07-07T03:55:30.344Z,69.92
2018-07-07T03:56:30.319Z,69.42
2018-07-07T03:57:30.335Z,70.23
2018-07-07T03:58:30.295Z,70.12
2018-07-07T03:59:30.287Z,70.32
2018-07-07T04:00:30.298Z,70.32
2018-07-07T04:01:30.266Z,70.43
2018-07-07T04:02:30.252Z,70.79
2018-07-07T04:03:30.241Z,70.19
2018-07-07T04:04:30.232Z,70.50
2018-07-07T04:05:30.223Z,70.43
2018-07-07T04:06:30.225Z,70.39
2018-07-07T04:07:30.198Z,70.79
2018-07-07T04:08:30.187Z,70.70
2018-07-07T04:09:30.176Z,71.09
2018-07-07T04:10:30.163Z,70.89
2018-07-07T04:11:30.189Z,71.60
2018-07-07T04:12:30.146Z,71.40
2018-07-07T04:13:30.132Z,71.80
2018-07-07T04:14:30.121Z,71.50
2018-07-07T04:15:30.115Z,71.60
2018-07-07T04:16:30.101Z,71.80
2018-07-07T04:17:30.108Z,72.00
2018-07-07T04:18:30.075Z,71.70
2018-07-07T04:19:30.067Z,72.00
2018-07-07T04:20:30.057Z,71.50
2018-07-07T04:21:30.043Z,71.80
2018-07-07T04:22:30.033Z,72.00
2018-07-07T04:23:30.038Z,72.00
2018-07-07T04:24:30.015Z,71.50
2018-07-07T04:25:30.004Z,70.86
2018-07-07T04:26:29.988Z,70.86
2018-07-07T04:27:29.978Z,70.23
2018-07-07T04:28:29.978Z,70.46
2018-07-07T04:29:29.954Z,70.23
2018-07-07T04:30:30.009Z,69.52
2018-07-07T04:31:29.933Z,69.19
2018-07-07T04:32:29.923Z,68.45
2018-07-07T04:33:29.927Z,68.12
2018-07-07T04:34:29.905Z,66.68
2018-07-07T04:35:29.917Z,66.45
2018-07-07T04:36:29.879Z,65.95
2018-07-07T04:37:29.875Z,66.45
2018-07-07T04:38:29.880Z,65.12
2018-07-07T04:39:29.846Z,65.01
2018-07-07T04:40:29.835Z,63.98
2018-07-07T04:41:29.823Z,64.28
2018-07-07T04:42:29.813Z,64.28
2018-07-07T04:43:29.806Z,63.25
2018-07-07T04:44:29.813Z,63.56
2018-07-07T04:45:29.780Z,63.45
2018-07-07T04:46:29.769Z,63.06
2018-07-07T04:47:29.758Z,64.18
2018-07-07T04:48:29.746Z,64.92
2018-07-07T04:49:29.736Z,65.45
2018-07-07T04:50:29.737Z,66.15
2018-07-07T04:51:29.747Z,65.52
2018-07-07T04:52:29.785Z,65.82
2018-07-07T04:53:29.693Z,66.12
2018-07-07T04:54:29.679Z,66.35
2018-07-07T04:55:29.684Z,66.75
2018-07-07T04:56:29.658Z,66.45
2018-07-07T04:57:29.648Z,65.48
2018-07-07T04:58:29.637Z,64.75
2018-07-07T04:59:29.627Z,63.42
2018-07-07T05:00:29.627Z,62.99
2018-07-07T05:01:29.601Z,61.57
2018-07-07T05:02:29.592Z,61.24
2018-07-07T05:03:29.580Z,61.59
2018-07-07T05:04:29.602Z,61.40
2018-07-07T05:05:29.572Z,60.77
2018-07-07T05:06:29.548Z,61.13
2018-07-07T05:07:29.542Z,59.61
2018-07-07T05:08:29.530Z,58.95
2018-07-07T05:09:29.521Z,59.15
2018-07-07T05:10:29.533Z,57.70
2018-07-07T05:11:29.494Z,56.57
2018-07-07T05:12:29.485Z,55.85
2018-07-07T05:13:29.472Z,55.46
2018-07-07T05:14:29.459Z,56.81
2018-07-07T05:15:29.482Z,57.82
2018-07-07T05:16:29.458Z,58.85
2018-07-07T05:19:48.617Z,59.81
2018-07-07T05:20:48.607Z,59.34
2018-07-07T05:21:48.611Z,59.53
2018-07-07T05:22:48.588Z,59.34
2018-07-07T05:23:48.579Z,60.14
2018-07-07T05:24:48.564Z,59.21
2018-07-07T05:25:48.564Z,59.41
2018-07-07T05:26:48.547Z,59.18
2018-07-07T05:27:48.528Z,59.58
2018-07-07T05:28:48.516Z,59.81
2018-07-07T05:29:48.509Z,59.78
2018-07-07T05:30:48.514Z,59.18
2018-07-07T05:31:48.534Z,59.18
2018-07-07T05:32:48.481Z,59.38
2018-07-07T05:33:48.463Z,59.70
2018-07-07T05:34:48.453Z,59.61
2018-07-07T05:35:48.493Z,60.71
2018-07-07T05:36:48.433Z,59.98
2018-07-07T05:37:48.425Z,58.29
2018-07-07T05:38:48.410Z,56.48
2018-07-07T05:39:48.397Z,56.15
2018-07-07T05:40:48.407Z,55.85
2018-07-07T05:41:48.377Z,55.30
2018-07-07T05:42:48.367Z,54.28
2018-07-07T05:43:48.356Z,53.23
2018-07-07T05:44:48.346Z,50.16
2018-07-07T05:45:48.356Z,49.00
2018-07-07T05:46:48.323Z,46.55
2018-07-07T05:47:48.311Z,46.44
2018-07-07T05:48:48.307Z,46.04
2018-07-07T05:49:48.294Z,46.04
2018-07-07T05:50:48.298Z,45.94
2018-07-07T05:51:48.268Z,46.06
2018-07-07T05:52:48.274Z,46.45
2018-07-07T05:53:48.253Z,46.85
2018-07-07T05:54:48.322Z,47.71
2018-07-07T05:55:48.286Z,47.09
2018-07-07T05:56:48.221Z,47.81
2018-07-07T05:57:48.343Z,47.81
2018-07-07T05:58:48.297Z,48.50
2018-07-07T05:59:48.226Z,47.89
2018-07-07T06:00:48.189Z,48.01
2018-07-07T06:01:48.163Z,48.40
2018-07-07T06:02:48.157Z,48.50
2018-07-07T06:03:48.157Z,48.43
2018-07-07T06:04:48.131Z,47.61
2018-07-07T06:05:48.139Z,47.61
2018-07-07T06:06:48.107Z,47.25
2018-07-07T06:07:48.099Z,45.84
2018-07-07T06:08:48.085Z,44.73
2018-07-07T06:09:48.082Z,45.72
2018-07-07T06:10:48.068Z,45.20
2018-07-07T06:11:48.069Z,43.82
2018-07-07T06:12:48.045Z,44.29
2018-07-07T06:13:48.032Z,44.43
2018-07-07T06:14:48.028Z,44.49
2018-07-07T06:15:48.027Z,43.66
2018-07-07T06:16:48.007Z,43.98
2018-07-07T06:17:47.998Z,43.80
2018-07-07T06:18:47.980Z,43.98
2018-07-07T06:19:47.970Z,44.37
2018-07-07T06:20:47.973Z,44.59
2018-07-07T06:21:47.973Z,46.04
2018-07-07T06:22:47.937Z,44.71
2018-07-07T06:23:47.932Z,45.32
2018-07-07T06:24:47.918Z,45.64
2018-07-07T06:25:47.927Z,44.81
2018-07-07T06:26:48.099Z,43.76
2018-07-07T06:27:47.893Z,43.05
2018-07-07T06:28:47.875Z,43.05
2018-07-07T06:29:47.864Z,43.46
2018-07-07T06:30:47.870Z,43.05
2018-07-07T06:31:47.847Z,42.93
2018-07-07T06:32:47.839Z,42.63
2018-07-07T06:33:47.823Z,42.83
2018-07-07T06:34:47.813Z,42.95
2018-07-07T06:35:47.818Z,44.07
2018-07-07T06:36:47.791Z,44.20
2018-07-07T06:37:47.783Z,43.66
2018-07-07T06:38:47.774Z,42.83
2018-07-07T06:39:47.759Z,43.15
2018-07-07T06:40:47.763Z,44.81
2018-07-07T06:41:47.739Z,45.60
2018-07-07T06:42:47.731Z,45.40
2018-07-07T06:43:47.780Z,47.15
2018-07-07T06:44:47.711Z,47.25
2018-07-07T06:45:47.713Z,47.05
2018-07-07T06:46:47.692Z,46.85
2018-07-07T06:47:47.679Z,47.37
2018-07-07T06:48:47.667Z,47.47
2018-07-07T06:49:47.657Z,47.49
2018-07-07T06:50:47.658Z,47.17
2018-07-07T06:51:47.643Z,48.30
2018-07-07T06:52:47.625Z,48.53
2018-07-07T06:53:47.642Z,49.37
2018-07-07T06:54:47.603Z,49.96
2018-07-07T06:55:47.620Z,49.46
2018-07-07T06:56:47.585Z,49.94
2018-07-07T06:57:47.591Z,49.62
2018-07-07T06:58:47.563Z,48.60
2018-07-07T06:59:47.556Z,49.12
2018-07-07T07:00:47.541Z,49.88
2018-07-07T07:01:47.548Z,49.34
2018-07-07T07:02:47.530Z,49.24
2018-07-07T07:03:47.511Z,49.52
2018-07-07T07:04:47.498Z,49.02
2018-07-07T07:05:47.526Z,49.52
2018-07-07T07:06:47.484Z,49.24
2018-07-07T07:07:47.515Z,49.84
2018-07-07T07:08:47.458Z,49.76
2018-07-07T07:09:47.455Z,49.62
2018-07-07T07:10:47.444Z,50.04
2018-07-07T07:11:47.439Z,48.48
2018-07-07T07:12:47.416Z,47.27
2018-07-07T07:13:47.415Z,47.13
2018-07-07T07:14:47.398Z,45.89
2018-07-07T07:15:47.384Z,45.89
2018-07-07T07:16:47.403Z,43.37
2018-07-07T07:17:47.362Z,44.35
2018-07-07T07:18:47.352Z,42.93
2018-07-07T07:19:47.350Z,43.74
2018-07-07T07:20:47.332Z,42.93
2018-07-07T07:21:47.337Z,45.20
2018-07-07T07:22:47.312Z,43.15
2018-07-07T07:23:47.306Z,41.29
2018-07-07T07:24:47.291Z,40.62
2018-07-07T07:25:47.280Z,41.11
2018-07-07T07:26:47.289Z,40.58
2018-07-07T07:27:47.261Z,40.66
2018-07-07T07:28:47.253Z,39.47
2018-07-07T07:29:47.242Z,39.37
2018-07-07T07:30:47.227Z,39.01
2018-07-07T07:31:47.234Z,39.56
2018-07-07T07:32:47.207Z,38.54
2018-07-07T07:33:47.196Z,37.05
2018-07-07T07:34:47.189Z,37.54
2018-07-07T07:35:47.179Z,36.51
2018-07-07T07:36:47.212Z,37.23
2018-07-07T07:37:47.158Z,36.35
2018-07-07T07:38:47.146Z,35.52
2018-07-07T07:39:47.140Z,34.89
2018-07-07T07:40:47.129Z,33.89
2018-07-07T07:41:47.142Z,35.93
2018-07-07T07:42:47.110Z,35.42
2018-07-07T07:43:47.099Z,35.30
2018-07-07T07:44:47.091Z,34.58
2018-07-07T07:45:47.079Z,35.32
2018-07-07T07:46:47.092Z,36.37
2018-07-07T07:47:47.060Z,35.86
2018-07-07T07:48:47.051Z,35.24
2018-07-07T07:49:47.040Z,36.25
2018-07-07T07:50:47.030Z,36.25
2018-07-07T07:51:47.030Z,36.80
2018-07-07T07:52:47.069Z,36.37
2018-07-07T07:53:47.000Z,36.74
2018-07-07T07:54:47.001Z,36.80
2018-07-07T07:55:46.987Z,34.80
2018-07-07T07:56:47.002Z,34.80
2018-07-07T07:57:46.966Z,34.94
2018-07-07T07:58:47.232Z,36.14
2018-07-07T07:59:46.946Z,36.58
2018-07-07T08:00:46.956Z,38.78
2018-07-07T08:01:46.949Z,36.53
2018-07-07T08:02:47.180Z,35.93
2018-07-07T08:03:46.909Z,35.52
2018-07-07T08:04:46.949Z,35.36
2018-07-07T08:05:46.888Z,34.36
2018-07-07T08:06:47.028Z,33.26
2018-07-07T08:07:46.869Z,34.06
2018-07-07T08:08:46.874Z,33.38
2018-07-07T08:09:46.853Z,32.97
2018-07-07T08:10:46.873Z,32.87
2018-07-07T08:11:46.851Z,32.06
2018-07-07T08:12:46.820Z,32.81
2018-07-07T08:13:46.860Z,32.89
2018-07-07T08:14:46.810Z,30.99
2018-07-07T08:15:46.792Z,30.29
2018-07-07T08:16:46.782Z,29.53
2018-07-07T08:17:47.161Z,30.71
2018-07-07T08:18:46.764Z,29.66
2018-07-07T08:19:46.755Z,29.35
2018-07-07T08:20:46.753Z,32.75
2018-07-07T08:21:46.733Z,32.94
2018-07-07T08:22:46.771Z,32.75
2018-07-07T08:23:46.718Z,31.98
2018-07-07T08:24:46.748Z,32.75
2018-07-07T08:25:46.705Z,30.97
2018-07-07T08:26:46.937Z,32.34
2018-07-07T08:27:46.712Z,32.43
2018-07-07T08:28:46.675Z,31.92
2018-07-07T08:29:47.048Z,31.69
2018-07-07T08:30:46.655Z,30.26
2018-07-07T08:31:46.657Z,30.42
2018-07-07T08:32:46.642Z,30.62
2018-07-07T08:33:46.647Z,29.57
2018-07-07T08:34:46.644Z,27.51
2018-07-07T08:35:47.698Z,28.58
2018-07-07T08:36:46.733Z,28.94
2018-07-07T08:37:46.591Z,28.65
2018-07-07T08:38:46.827Z,29.69
2018-07-07T08:39:46.573Z,30.08
2018-07-07T08:40:46.572Z,30.69
2018-07-07T08:41:46.610Z,28.91
2018-07-07T08:42:46.548Z,27.69
2018-07-07T08:43:46.554Z,27.86
2018-07-07T08:44:46.540Z,27.70
2018-07-07T08:45:46.524Z,26.61
2018-07-07T08:46:46.525Z,26.91
2018-07-07T08:47:46.731Z,26.91
2018-07-07T08:48:46.610Z,27.13
2018-07-07T08:49:46.567Z,27.91
2018-07-07T08:50:46.476Z,27.61
2018-07-07T08:51:46.541Z,26.70
2018-07-07T08:52:46.463Z,26.51
2018-07-07T08:53:46.477Z,25.43
2018-07-07T08:54:46.440Z,26.70
2018-07-07T08:55:46.442Z,26.48
2018-07-07T08:56:47.961Z,25.76
2018-07-07T08:57:47.261Z,25.48
2018-07-07T08:58:46.716Z,26.44
2018-07-07T08:59:46.444Z,25.57
2018-07-07T09:00:46.391Z,25.18
2018-07-07T09:01:46.435Z,26.17
2018-07-07T09:02:46.385Z,25.79
2018-07-07T09:03:46.365Z,26.46
2018-07-07T09:04:46.371Z,25.86
2018-07-07T09:05:46.351Z,26.76
2018-07-07T09:06:46.339Z,26.37
2018-07-07T09:07:46.345Z,26.73
2018-07-07T09:08:46.324Z,27.25
2018-07-07T09:09:46.330Z,30.70
2018-07-07T09:10:46.308Z,31.45
2018-07-07T09:11:46.319Z,30.37
2018-07-07T09:12:46.396Z,30.25
2018-07-07T09:13:46.344Z,29.31
2018-07-07T09:14:46.285Z,28.79
2018-07-07T09:15:46.261Z,27.76
2018-07-07T09:16:46.277Z,26.29
2018-07-07T09:17:46.509Z,26.87
2018-07-07T09:18:46.243Z,25.38
2018-07-07T09:19:46.247Z,25.16
2018-07-07T09:20:46.218Z,25.76
2018-07-07T09:21:46.209Z,25.76
2018-07-07T09:22:46.202Z,25.19
2018-07-07T09:23:46.195Z,26.44
2018-07-07T09:24:46.184Z,25.36
2018-07-07T09:25:46.191Z,25.67
2018-07-07T09:26:46.166Z,25.54
2018-07-07T09:27:46.160Z,26.26
2018-07-07T09:28:46.150Z,26.39
2018-07-07T09:29:46.142Z,27.05
2018-07-07T09:30:46.206Z,26.29
2018-07-07T09:31:46.136Z,26.69
2018-07-07T09:32:46.124Z,25.97
2018-07-07T09:33:46.110Z,25.37
2018-07-07T09:34:46.105Z,24.88
2018-07-07T09:35:46.109Z,25.53
2018-07-07T09:36:46.086Z,24.56
2018-07-07T09:37:46.080Z,25.82
2018-07-07T09:38:46.179Z,25.43
2018-07-07T09:39:46.064Z,25.18
2018-07-07T09:40:46.071Z,26.33
2018-07-07T09:41:46.044Z,25.27
2018-07-07T09:42:46.036Z,25.38
2018-07-07T09:43:46.042Z,26.59
2018-07-07T09:44:46.027Z,26.50
2018-07-07T09:45:46.015Z,26.90
2018-07-07T09:46:46.023Z,27.23
2018-07-07T09:47:45.996Z,26.70
2018-07-07T09:48:45.994Z,26.37
2018-07-07T09:49:45.982Z,25.59
2018-07-07T09:50:45.978Z,25.21
2018-07-07T09:51:45.984Z,24.90
2018-07-07T09:52:45.959Z,24.99
2018-07-07T09:53:45.950Z,25.69
2018-07-07T09:54:46.279Z,26.21
2018-07-07T09:55:45.936Z,26.03
2018-07-07T09:56:45.942Z,26.38
2018-07-07T09:57:45.923Z,28.44
2018-07-07T09:58:45.918Z,28.30
2018-07-07T09:59:45.912Z,27.11
2018-07-07T10:00:45.895Z,24.83
2018-07-07T10:01:45.935Z,25.42
2018-07-07T10:02:45.881Z,26.07
2018-07-07T10:03:45.873Z,24.91
2018-07-07T10:04:46.221Z,25.91
2018-07-07T10:05:46.167Z,26.01
2018-07-07T10:06:45.872Z,25.99
2018-07-07T10:07:45.887Z,25.41
2018-07-07T10:08:45.834Z,25.20
2018-07-07T10:09:45.829Z,25.51
2018-07-07T10:10:45.830Z,24.61
2018-07-07T10:11:45.830Z,24.51
2018-07-07T10:12:45.803Z,24.22
2018-07-07T10:13:45.797Z,24.44
2018-07-07T10:14:45.787Z,25.02
2018-07-07T10:15:45.786Z,25.12
2018-07-07T10:16:45.778Z,25.51
2018-07-07T10:17:45.781Z,24.54
2018-07-07T10:18:45.760Z,25.71
2018-07-07T10:19:45.751Z,25.04
2018-07-07T10:20:45.777Z,24.94
2018-07-07T10:21:45.734Z,24.54
2018-07-07T10:22:45.742Z,26.12
2018-07-07T10:23:45.722Z,24.74
2018-07-07T10:24:45.710Z,25.64
2018-07-07T10:25:45.702Z,25.85
2018-07-07T10:26:45.699Z,25.56
2018-07-07T10:27:45.704Z,25.93
2018-07-07T10:28:45.684Z,25.31
2018-07-07T10:29:45.673Z,27.90
2018-07-07T10:30:45.666Z,25.54
2018-07-07T10:31:45.672Z,24.46
2018-07-07T10:32:45.683Z,26.34
2018-07-07T10:33:45.655Z,26.32
2018-07-07T10:34:45.637Z,25.60
2018-07-07T10:35:45.625Z,24.30
2018-07-07T10:36:45.618Z,24.29
2018-07-07T10:37:45.610Z,24.18
2018-07-07T10:38:45.621Z,22.91
2018-07-07T10:39:45.594Z,22.49
2018-07-07T10:40:45.587Z,23.41
2018-07-07T10:41:45.583Z,24.63
2018-07-07T10:42:45.573Z,26.40
2018-07-07T10:43:45.585Z,24.62
2018-07-07T10:44:45.601Z,24.80
2018-07-07T10:45:45.735Z,24.82
2018-07-07T10:46:45.541Z,26.39
2018-07-07T10:47:45.534Z,25.90
2018-07-07T10:48:45.553Z,24.95
2018-07-07T10:49:45.516Z,25.43
2018-07-07T10:50:45.508Z,24.84
2018-07-07T10:51:45.499Z,25.96
2018-07-07T10:52:45.494Z,26.03
2018-07-07T10:53:45.728Z,26.78
2018-07-07T10:54:45.492Z,26.50
2018-07-07T10:55:45.471Z,26.32
2018-07-07T10:56:45.461Z,26.18
2018-07-07T10:57:45.454Z,25.89
2018-07-07T10:58:45.476Z,26.37
2018-07-07T10:59:45.453Z,26.46
2018-07-07T11:00:45.432Z,25.18
2018-07-07T11:01:45.461Z,25.95
2018-07-07T11:02:45.416Z,25.84
2018-07-07T11:03:45.408Z,25.76
2018-07-07T11:04:45.420Z,26.48
2018-07-07T11:05:45.391Z,26.82
2018-07-07T11:06:45.384Z,27.23
2018-07-07T11:07:45.380Z,28.19
2018-07-07T11:08:45.374Z,27.00
2018-07-07T11:09:45.374Z,26.90
2018-07-07T11:10:45.355Z,26.53
2018-07-07T11:11:45.365Z,26.73
2018-07-07T11:12:45.356Z,26.79
2018-07-07T11:13:45.728Z,29.99
2018-07-07T11:14:45.339Z,28.99
2018-07-07T11:15:45.316Z,27.99
2018-07-07T11:16:45.307Z,27.60
2018-07-07T11:17:45.303Z,28.57
2018-07-07T11:18:45.292Z,28.37
2018-07-07T11:19:45.313Z,27.56
2018-07-07T11:20:45.278Z,27.37
2018-07-07T11:21:45.276Z,27.69
2018-07-07T11:22:45.270Z,28.85
2018-07-07T11:23:45.254Z,28.17
2018-07-07T11:24:45.263Z,27.89
2018-07-07T11:25:45.239Z,29.28
2018-07-07T11:26:45.231Z,29.28
2018-07-07T11:27:45.225Z,28.88
2018-07-07T11:28:45.217Z,29.07
2018-07-07T11:29:45.227Z,26.84
2018-07-07T11:30:45.198Z,28.03
2018-07-07T11:31:45.191Z,28.74
2018-07-07T11:32:45.180Z,29.13
2018-07-07T11:33:45.172Z,29.43
2018-07-07T11:34:45.178Z,29.13
2018-07-07T11:35:45.156Z,29.23
2018-07-07T11:36:45.335Z,29.82
2018-07-07T11:37:45.140Z,30.79
2018-07-07T11:38:45.136Z,29.59
2018-07-07T11:39:45.135Z,29.89
2018-07-07T11:40:45.114Z,29.19
2018-07-07T11:41:45.104Z,28.14
2018-07-07T11:42:45.121Z,29.14
2018-07-07T11:43:45.087Z,29.44
2018-07-07T11:44:45.099Z,29.35
2018-07-07T11:45:45.071Z,29.66
2018-07-07T11:46:45.064Z,29.86
2018-07-07T11:47:45.055Z,30.94
2018-07-07T11:48:45.053Z,30.94
2018-07-07T11:49:45.069Z,30.55
2018-07-07T11:50:45.045Z,30.35
2018-07-07T11:51:45.025Z,29.47
2018-07-07T11:52:45.014Z,29.85
2018-07-07T11:53:45.003Z,31.41
2018-07-07T11:54:45.012Z,30.13
2018-07-07T11:55:44.986Z,29.74
2018-07-07T11:56:44.976Z,29.35
2018-07-07T11:57:44.969Z,29.35
2018-07-07T11:58:44.964Z,29.46
2018-07-07T11:59:45.007Z,29.38
2018-07-07T12:00:44.940Z,31.16
2018-07-07T12:01:44.936Z,29.96
2018-07-07T12:02:44.925Z,29.17
2018-07-07T12:03:44.910Z,30.17
2018-07-07T12:04:44.963Z,30.37
2018-07-07T12:05:44.892Z,32.32
2018-07-07T12:06:44.884Z,28.88
2018-07-07T12:07:44.875Z,28.38
2018-07-07T12:08:44.867Z,29.17
2018-07-07T12:09:44.875Z,27.79
2018-07-07T12:10:44.848Z,28.99
2018-07-07T12:11:44.877Z,29.38
2018-07-07T12:12:44.825Z,29.99
2018-07-07T12:13:44.815Z,27.91
2018-07-07T12:14:44.827Z,28.80
2018-07-07T12:15:44.795Z,29.30
2018-07-07T12:16:44.785Z,28.33
2018-07-07T12:17:44.779Z,29.20
2018-07-07T12:18:44.763Z,28.61
2018-07-07T12:19:44.755Z,29.58
2018-07-07T12:20:44.764Z,30.07
2018-07-07T12:21:44.747Z,28.88
2018-07-07T12:22:44.727Z,28.19
2018-07-07T12:23:45.063Z,28.38
2018-07-07T12:24:44.725Z,29.48
2018-07-07T12:25:44.708Z,28.51
2018-07-07T12:26:44.690Z,29.39
2018-07-07T12:27:44.681Z,29.10
2018-07-07T12:28:44.668Z,29.39
2018-07-07T12:29:44.658Z,29.51
2018-07-07T12:30:44.669Z,29.33
2018-07-07T12:31:44.637Z,29.91
2018-07-07T12:32:44.624Z,28.92
2018-07-07T12:33:44.615Z,28.23
2018-07-07T12:34:44.600Z,29.30
2018-07-07T12:35:44.596Z,29.30
2018-07-07T12:36:44.718Z,28.91
2018-07-07T12:37:44.578Z,28.11
2018-07-07T12:38:44.561Z,29.21
2018-07-07T12:39:44.551Z,29.71
2018-07-07T12:40:44.597Z,30.02
2018-07-07T12:41:44.547Z,29.33
2018-07-07T12:42:44.523Z,29.33
2018-07-07T12:43:44.515Z,29.92
2018-07-07T12:44:44.521Z,29.23
2018-07-07T12:45:44.490Z,31.59
2018-07-07T12:46:44.493Z,29.71
2018-07-07T12:47:44.470Z,30.00
2018-07-07T12:48:44.460Z,28.82
2018-07-07T12:49:44.450Z,29.41
2018-07-07T12:50:44.590Z,29.03
2018-07-07T12:51:44.444Z,29.72
2018-07-07T12:52:44.418Z,31.99
2018-07-07T12:53:44.405Z,29.13
2018-07-07T12:54:44.397Z,28.92
2018-07-07T12:55:44.386Z,29.33
2018-07-07T12:56:44.375Z,29.72